sensor_id;sensor_type;location;lat;lon;timestamp;pressure;altitude;pressure_sealevel;temperature;humidity
45078;BME280;60508;42.622;25.416;2024-02-21T00:02:25;97455.63;;;5.22;93.15
45078;BME280;60508;42.622;25.416;2024-02-21T00:05:11;97447.75;;;5.14;93.10
45078;BME280;60508;42.622;25.416;2024-02-21T00:07:38;97456.19;;;5.17;92.98
45078;BME280;60508;42.622;25.416;2024-02-21T00:10:24;97460.81;;;5.30;92.47
45078;BME280;60508;42.622;25.416;2024-02-21T00:12:51;97442.72;;;5.25;91.58
45078;BME280;60508;42.622;25.416;2024-02-21T00:15:18;97447.06;;;5.26;91.30
45078;BME280;60508;42.622;25.416;2024-02-21T00:17:44;97438.63;;;5.29;91.58
45078;BME280;60508;42.622;25.416;2024-02-21T00:20:11;97427.97;;;5.29;91.87
45078;BME280;60508;42.622;25.416;2024-02-21T00:22:37;97426.94;;;5.24;92.00
45078;BME280;60508;42.622;25.416;2024-02-21T00:25:24;97430.66;;;5.29;92.17
45078;BME280;60508;42.622;25.416;2024-02-21T00:27:50;97443.59;;;5.33;92.14
45078;BME280;60508;42.622;25.416;2024-02-21T00:30:16;97443.63;;;4.68;93.62
45078;BME280;60508;42.622;25.416;2024-02-21T00:33:03;97450.25;;;4.35;95.00
45078;BME280;60508;42.622;25.416;2024-02-21T00:35:29;97448.75;;;4.48;95.70
45078;BME280;60508;42.622;25.416;2024-02-21T00:38:16;97440.91;;;4.61;95.20
45078;BME280;60508;42.622;25.416;2024-02-21T00:40:42;97442.88;;;4.74;95.20
45078;BME280;60508;42.622;25.416;2024-02-21T00:43:09;97442.19;;;4.65;95.29
45078;BME280;60508;42.622;25.416;2024-02-21T00:45:55;97446.16;;;4.54;95.76
45078;BME280;60508;42.622;25.416;2024-02-21T00:48:22;97444.66;;;4.67;95.44
45078;BME280;60508;42.622;25.416;2024-02-21T00:50:48;97450.19;;;4.65;95.11
45078;BME280;60508;42.622;25.416;2024-02-21T00:53:35;97449.34;;;4.65;95.14
45078;BME280;60508;42.622;25.416;2024-02-21T00:56:07;97441.09;;;4.81;94.95
45078;BME280;60508;42.622;25.416;2024-02-21T00:58:33;97436.19;;;4.78;94.23
45078;BME280;60508;42.622;25.416;2024-02-21T01:01:02;97431.03;;;4.77;93.89
45078;BME280;60508;42.622;25.416;2024-02-21T01:03:29;97429.44;;;4.82;93.71
45078;BME280;60508;42.622;25.416;2024-02-21T01:05:56;97425.88;;;4.97;93.93
45078;BME280;60508;42.622;25.416;2024-02-21T01:08:22;97426.28;;;4.93;93.31
45078;BME280;60508;42.622;25.416;2024-02-21T01:10:48;97418.31;;;5.00;93.52
45078;BME280;60508;42.622;25.416;2024-02-21T01:13:35;97423.97;;;5.12;93.21
45078;BME280;60508;42.622;25.416;2024-02-21T01:16:01;97421.50;;;5.10;92.88
45078;BME280;60508;42.622;25.416;2024-02-21T01:18:27;97420.81;;;5.02;92.64
45078;BME280;60508;42.622;25.416;2024-02-21T01:21:14;97411.94;;;4.94;92.69
45078;BME280;60508;42.622;25.416;2024-02-21T01:23:40;97418.09;;;4.95;92.93
45078;BME280;60508;42.622;25.416;2024-02-21T01:26:26;97424.19;;;4.89;93.48
45078;BME280;60508;42.622;25.416;2024-02-21T01:28:53;97423.78;;;4.92;93.06
45078;BME280;60508;42.622;25.416;2024-02-21T01:31:19;97423.16;;;4.90;93.26
45078;BME280;60508;42.622;25.416;2024-02-21T01:33:46;97411.94;;;4.94;93.66
45078;BME280;60508;42.622;25.416;2024-02-21T01:36:12;97414.63;;;4.94;93.27
45078;BME280;60508;42.622;25.416;2024-02-21T01:38:59;97412.09;;;4.86;93.22
45078;BME280;60508;42.622;25.416;2024-02-21T01:41:25;97418.31;;;4.72;93.70
45078;BME280;60508;42.622;25.416;2024-02-21T01:43:52;97410.06;;;4.67;94.38
45078;BME280;60508;42.622;25.416;2024-02-21T01:46:39;97415.44;;;4.73;94.71
45078;BME280;60508;42.622;25.416;2024-02-21T01:49:09;97411.50;;;4.69;94.41
45078;BME280;60508;42.622;25.416;2024-02-21T01:51:39;97418.97;;;4.81;93.84
45078;BME280;60508;42.622;25.416;2024-02-21T01:54:26;97420.97;;;4.72;94.21
45078;BME280;60508;42.622;25.416;2024-02-21T01:56:54;97426.91;;;4.74;94.53
45078;BME280;60508;42.622;25.416;2024-02-21T01:59:41;97417.34;;;4.80;94.18
45078;BME280;60508;42.622;25.416;2024-02-21T02:02:08;97420.75;;;4.95;93.94
45078;BME280;60508;42.622;25.416;2024-02-21T02:04:40;97415.03;;;4.98;93.54
45078;BME280;60508;42.622;25.416;2024-02-21T02:07:20;97414.03;;;4.99;93.14
45078;BME280;60508;42.622;25.416;2024-02-21T02:09:46;97412.44;;;5.05;93.05
45078;BME280;60508;42.622;25.416;2024-02-21T02:12:13;97410.28;;;4.93;93.35
45078;BME280;60508;42.622;25.416;2024-02-21T02:14:39;97410.72;;;4.97;93.76
45078;BME280;60508;42.622;25.416;2024-02-21T02:17:26;97412.81;;;5.02;93.90
45078;BME280;60508;42.622;25.416;2024-02-21T02:19:52;97408.63;;;5.14;92.95
45078;BME280;60508;42.622;25.416;2024-02-21T02:22:22;97416.19;;;4.89;93.81
45078;BME280;60508;42.622;25.416;2024-02-21T02:25:11;97401.28;;;4.94;93.85
45078;BME280;60508;42.622;25.416;2024-02-21T02:27:42;97403.31;;;4.92;93.78
45078;BME280;60508;42.622;25.416;2024-02-21T02:30:34;97405.84;;;5.01;93.86
45078;BME280;60508;42.622;25.416;2024-02-21T02:33:03;97401.59;;;5.06;93.34
45078;BME280;60508;42.622;25.416;2024-02-21T02:35:49;97409.16;;;5.03;93.92
45078;BME280;60508;42.622;25.416;2024-02-21T02:38:16;97405.53;;;5.10;93.52
45078;BME280;60508;42.622;25.416;2024-02-21T02:41:03;97406.91;;;5.06;93.37
45078;BME280;60508;42.622;25.416;2024-02-21T02:43:29;97410.00;;;5.10;92.25
45078;BME280;60508;42.622;25.416;2024-02-21T02:45:56;97402.31;;;4.93;92.32
45078;BME280;60508;42.622;25.416;2024-02-21T02:48:23;97410.47;;;4.92;92.82
45078;BME280;60508;42.622;25.416;2024-02-21T02:50:53;97403.31;;;4.92;92.92
45078;BME280;60508;42.622;25.416;2024-02-21T02:53:24;97415.25;;;4.75;93.63
45078;BME280;60508;42.622;25.416;2024-02-21T02:55:50;97414.72;;;4.65;93.53
45078;BME280;60508;42.622;25.416;2024-02-21T02:58:16;97414.47;;;4.60;94.49
45078;BME280;60508;42.622;25.416;2024-02-21T03:00:43;97415.91;;;4.55;94.78
45078;BME280;60508;42.622;25.416;2024-02-21T03:03:29;97416.09;;;4.39;95.32
45078;BME280;60508;42.622;25.416;2024-02-21T03:05:56;97418.47;;;4.49;95.76
45078;BME280;60508;42.622;25.416;2024-02-21T03:08:22;97413.13;;;4.49;95.47
45078;BME280;60508;42.622;25.416;2024-02-21T03:10:48;97412.94;;;4.50;95.02
45078;BME280;60508;42.622;25.416;2024-02-21T03:13:15;97410.88;;;4.46;95.00
45078;BME280;60508;42.622;25.416;2024-02-21T03:15:41;97421.97;;;4.71;94.54
45078;BME280;60508;42.622;25.416;2024-02-21T03:18:28;97426.59;;;4.62;93.97
45078;BME280;60508;42.622;25.416;2024-02-21T03:20:54;97430.13;;;4.69;93.38
45078;BME280;60508;42.622;25.416;2024-02-21T03:23:20;97422.09;;;4.63;93.86
45078;BME280;60508;42.622;25.416;2024-02-21T03:26:07;97420.38;;;4.55;94.44
45078;BME280;60508;42.622;25.416;2024-02-21T03:28:33;97416.81;;;4.48;95.58
45078;BME280;60508;42.622;25.416;2024-02-21T03:31:20;97408.09;;;4.54;95.71
45078;BME280;60508;42.622;25.416;2024-02-21T03:33:46;97421.47;;;4.61;95.47
45078;BME280;60508;42.622;25.416;2024-02-21T03:36:13;97415.72;;;4.57;94.91
45078;BME280;60508;42.622;25.416;2024-02-21T03:38:41;97416.56;;;4.43;95.49
45078;BME280;60508;42.622;25.416;2024-02-21T03:41:07;97420.81;;;4.58;94.98
45078;BME280;60508;42.622;25.416;2024-02-21T03:43:34;97412.44;;;4.62;94.89
45078;BME280;60508;42.622;25.416;2024-02-21T03:46:20;97418.94;;;4.52;95.00
45078;BME280;60508;42.622;25.416;2024-02-21T03:48:46;97414.78;;;4.50;95.74
45078;BME280;60508;42.622;25.416;2024-02-21T03:51:13;97412.38;;;4.55;95.21
45078;BME280;60508;42.622;25.416;2024-02-21T03:54:00;97405.69;;;4.59;94.79
45078;BME280;60508;42.622;25.416;2024-02-21T03:56:27;97414.59;;;4.73;94.67
45078;BME280;60508;42.622;25.416;2024-02-21T03:59:18;97412.00;;;4.58;94.82
45078;BME280;60508;42.622;25.416;2024-02-21T04:01:53;97412.38;;;4.55;94.74
45078;BME280;60508;42.622;25.416;2024-02-21T04:04:20;97418.63;;;4.62;94.72
45078;BME280;60508;42.622;25.416;2024-02-21T04:06:49;97410.09;;;4.52;94.67
45078;BME280;60508;42.622;25.416;2024-02-21T04:09:36;97416.19;;;4.46;95.33
45078;BME280;60508;42.622;25.416;2024-02-21T04:12:03;97417.09;;;4.53;95.13
45078;BME280;60508;42.622;25.416;2024-02-21T04:14:29;97414.53;;;4.45;95.64
45078;BME280;60508;42.622;25.416;2024-02-21T04:17:15;97420.06;;;4.43;95.61
45078;BME280;60508;42.622;25.416;2024-02-21T04:19:42;97426.00;;;4.45;95.92
45078;BME280;60508;42.622;25.416;2024-02-21T04:22:08;97411.13;;;4.51;95.75
45078;BME280;60508;42.622;25.416;2024-02-21T04:24:34;97415.91;;;4.41;96.38
45078;BME280;60508;42.622;25.416;2024-02-21T04:27:01;97423.41;;;4.52;96.31
45078;BME280;60508;42.622;25.416;2024-02-21T04:29:28;97412.19;;;4.56;95.78
45078;BME280;60508;42.622;25.416;2024-02-21T04:31:56;97414.91;;;4.63;95.43
45078;BME280;60508;42.622;25.416;2024-02-21T04:34:22;97417.97;;;4.60;94.88
45078;BME280;60508;42.622;25.416;2024-02-21T04:36:49;97422.66;;;4.58;94.58
45078;BME280;60508;42.622;25.416;2024-02-21T04:39:15;97421.09;;;4.64;94.80
45078;BME280;60508;42.622;25.416;2024-02-21T04:42:02;97419.69;;;4.46;94.39
45078;BME280;60508;42.622;25.416;2024-02-21T04:44:28;97423.56;;;4.29;96.38
45078;BME280;60508;42.622;25.416;2024-02-21T04:46:55;97424.56;;;4.28;96.33
45078;BME280;60508;42.622;25.416;2024-02-21T04:49:41;97415.53;;;4.22;96.53
45078;BME280;60508;42.622;25.416;2024-02-21T04:52:08;97426.25;;;4.29;97.01
45078;BME280;60508;42.622;25.416;2024-02-21T04:54:34;97425.69;;;4.33;96.99
45078;BME280;60508;42.622;25.416;2024-02-21T04:57:03;97434.09;;;4.37;96.68
45078;BME280;60508;42.622;25.416;2024-02-21T04:59:50;97440.16;;;4.46;96.41
45078;BME280;60508;42.622;25.416;2024-02-21T05:02:16;97434.28;;;4.35;96.29
45078;BME280;60508;42.622;25.416;2024-02-21T05:04:43;97437.75;;;4.51;96.71
45078;BME280;60508;42.622;25.416;2024-02-21T05:07:30;97444.06;;;4.50;96.67
45078;BME280;60508;42.622;25.416;2024-02-21T05:09:56;97435.78;;;4.60;96.13
45078;BME280;60508;42.622;25.416;2024-02-21T05:12:23;97439.75;;;4.49;96.09
45078;BME280;60508;42.622;25.416;2024-02-21T05:14:49;97443.88;;;4.51;96.00
45078;BME280;60508;42.622;25.416;2024-02-21T05:17:15;97449.19;;;4.51;95.52
45078;BME280;60508;42.622;25.416;2024-02-21T05:19:42;97444.63;;;4.45;95.41
45078;BME280;60508;42.622;25.416;2024-02-21T05:22:28;97461.16;;;4.41;95.58
45078;BME280;60508;42.622;25.416;2024-02-21T05:24:54;97458.19;;;4.50;95.45
45078;BME280;60508;42.622;25.416;2024-02-21T05:27:21;97453.78;;;4.57;95.58
45078;BME280;60508;42.622;25.416;2024-02-21T05:29:47;97464.00;;;4.54;94.82
45078;BME280;60508;42.622;25.416;2024-02-21T05:32:14;97457.88;;;4.38;95.41
45078;BME280;60508;42.622;25.416;2024-02-21T05:35:01;97466.09;;;4.44;95.32
45078;BME280;60508;42.622;25.416;2024-02-21T05:37:27;97468.75;;;4.44;95.62
45078;BME280;60508;42.622;25.416;2024-02-21T05:39:53;97473.19;;;4.36;95.75
45078;BME280;60508;42.622;25.416;2024-02-21T05:42:20;97472.81;;;4.39;96.50
45078;BME280;60508;42.622;25.416;2024-02-21T05:45:06;97476.19;;;4.48;95.87
45078;BME280;60508;42.622;25.416;2024-02-21T05:47:33;97484.63;;;4.52;95.26
45078;BME280;60508;42.622;25.416;2024-02-21T05:49:59;97488.13;;;4.52;95.41
45078;BME280;60508;42.622;25.416;2024-02-21T05:52:46;97482.25;;;4.42;96.56
45078;BME280;60508;42.622;25.416;2024-02-21T05:55:12;97483.56;;;4.68;96.14
45078;BME280;60508;42.622;25.416;2024-02-21T05:57:58;97488.97;;;4.74;95.61
45078;BME280;60508;42.622;25.416;2024-02-21T06:00:25;97490.31;;;4.85;94.82
45078;BME280;60508;42.622;25.416;2024-02-21T06:02:51;97492.22;;;4.91;94.57
45078;BME280;60508;42.622;25.416;2024-02-21T06:05:38;97494.72;;;5.21;93.64
45078;BME280;60508;42.622;25.416;2024-02-21T06:08:05;97495.63;;;5.28;93.47
45078;BME280;60508;42.622;25.416;2024-02-21T06:10:31;97496.50;;;5.36;93.48
45078;BME280;60508;42.622;25.416;2024-02-21T06:12:58;97497.06;;;5.31;92.80
45078;BME280;60508;42.622;25.416;2024-02-21T06:15:24;97497.53;;;5.35;93.40
45078;BME280;60508;42.622;25.416;2024-02-21T06:18:10;97508.59;;;5.60;92.40
45078;BME280;60508;42.622;25.416;2024-02-21T06:20:37;97496.75;;;5.69;91.55
45078;BME280;60508;42.622;25.416;2024-02-21T06:23:06;97504.41;;;5.51;91.81
45078;BME280;60508;42.622;25.416;2024-02-21T06:25:53;97507.56;;;5.61;91.74
45078;BME280;60508;42.622;25.416;2024-02-21T06:28:19;97506.47;;;5.77;91.14
45078;BME280;60508;42.622;25.416;2024-02-21T06:30:46;97513.97;;;5.95;90.48
45078;BME280;60508;42.622;25.416;2024-02-21T06:33:13;97503.88;;;5.62;90.56
45078;BME280;60508;42.622;25.416;2024-02-21T06:35:59;97503.97;;;5.19;93.00
45078;BME280;60508;42.622;25.416;2024-02-21T06:38:25;97505.22;;;5.01;94.01
45078;BME280;60508;42.622;25.416;2024-02-21T06:40:52;97507.81;;;5.16;94.96
45078;BME280;60508;42.622;25.416;2024-02-21T06:43:20;97509.66;;;5.16;94.63
45078;BME280;60508;42.622;25.416;2024-02-21T06:46:06;97512.63;;;5.27;93.94
45078;BME280;60508;42.622;25.416;2024-02-21T06:48:33;97508.44;;;5.18;92.98
45078;BME280;60508;42.622;25.416;2024-02-21T06:50:59;97502.88;;;5.13;93.15
45078;BME280;60508;42.622;25.416;2024-02-21T06:53:46;97512.75;;;5.19;93.43
45078;BME280;60508;42.622;25.416;2024-02-21T06:56:12;97506.16;;;5.15;92.65
45078;BME280;60508;42.622;25.416;2024-02-21T06:58:38;97511.69;;;5.14;92.83
45078;BME280;60508;42.622;25.416;2024-02-21T07:01:25;97516.81;;;4.93;93.67
45078;BME280;60508;42.622;25.416;2024-02-21T07:03:51;97512.50;;;4.92;94.45
45078;BME280;60508;42.622;25.416;2024-02-21T07:06:18;97510.53;;;4.80;94.96
45078;BME280;60508;42.622;25.416;2024-02-21T07:09:04;97513.09;;;4.73;95.62
45078;BME280;60508;42.622;25.416;2024-02-21T07:11:30;97517.28;;;4.61;96.12
45078;BME280;60508;42.622;25.416;2024-02-21T07:13:57;97507.72;;;4.66;96.62
45078;BME280;60508;42.622;25.416;2024-02-21T07:16:23;97514.88;;;4.66;96.71
45078;BME280;60508;42.622;25.416;2024-02-21T07:18:49;97514.06;;;4.65;96.69
45078;BME280;60508;42.622;25.416;2024-02-21T07:21:36;97505.50;;;4.70;97.17
45078;BME280;60508;42.622;25.416;2024-02-21T07:24:04;97502.09;;;4.76;96.62
45078;BME280;60508;42.622;25.416;2024-02-21T07:26:31;97496.00;;;4.82;96.31
45078;BME280;60508;42.622;25.416;2024-02-21T07:29:17;97491.06;;;4.79;95.51
45078;BME280;60508;42.622;25.416;2024-02-21T07:31:44;97496.31;;;4.94;95.99
45078;BME280;60508;42.622;25.416;2024-02-21T07:34:31;97502.38;;;5.03;94.93
45078;BME280;60508;42.622;25.416;2024-02-21T07:36:57;97507.16;;;5.57;92.81
45078;BME280;60508;42.622;25.416;2024-02-21T07:39:23;97511.56;;;5.72;89.74
45078;BME280;60508;42.622;25.416;2024-02-21T07:42:10;97510.25;;;5.96;88.17
45078;BME280;60508;42.622;25.416;2024-02-21T07:44:36;97507.44;;;5.97;88.17
45078;BME280;60508;42.622;25.416;2024-02-21T07:47:03;97507.63;;;6.37;87.19
45078;BME280;60508;42.622;25.416;2024-02-21T07:49:49;97505.56;;;6.33;86.27
45078;BME280;60508;42.622;25.416;2024-02-21T07:52:15;97505.63;;;6.46;86.43
45078;BME280;60508;42.622;25.416;2024-02-21T07:55:02;97507.50;;;6.52;84.09
45078;BME280;60508;42.622;25.416;2024-02-21T07:57:29;97503.25;;;6.78;82.68
45078;BME280;60508;42.622;25.416;2024-02-21T07:59:56;97504.72;;;6.74;82.71
45078;BME280;60508;42.622;25.416;2024-02-21T08:02:42;97507.59;;;6.86;83.13
45078;BME280;60508;42.622;25.416;2024-02-21T08:05:09;97509.94;;;7.09;81.75
45078;BME280;60508;42.622;25.416;2024-02-21T08:07:38;97512.41;;;7.37;80.68
45078;BME280;60508;42.622;25.416;2024-02-21T08:10:05;97511.19;;;7.40;79.53
45078;BME280;60508;42.622;25.416;2024-02-21T08:12:34;97514.69;;;7.47;79.07
45078;BME280;60508;42.622;25.416;2024-02-21T08:15:02;97511.38;;;7.11;81.17
45078;BME280;60508;42.622;25.416;2024-02-21T08:17:49;97512.00;;;7.47;79.27
45078;BME280;60508;42.622;25.416;2024-02-21T08:20:16;97508.09;;;7.76;78.39
45078;BME280;60508;42.622;25.416;2024-02-21T08:22:42;97513.59;;;8.08;76.82
45078;BME280;60508;42.622;25.416;2024-02-21T08:25:09;97508.94;;;8.55;73.63
45078;BME280;60508;42.622;25.416;2024-02-21T08:27:58;97504.22;;;8.96;71.99
45078;BME280;60508;42.622;25.416;2024-02-21T08:30:25;97510.47;;;8.83;72.50
45078;BME280;60508;42.622;25.416;2024-02-21T08:32:51;97508.03;;;8.75;72.89
45078;BME280;60508;42.622;25.416;2024-02-21T08:35:40;97511.97;;;9.11;71.68
45078;BME280;60508;42.622;25.416;2024-02-21T08:38:06;97506.84;;;9.35;70.01
45078;BME280;60508;42.622;25.416;2024-02-21T08:40:32;97513.13;;;9.54;68.66
45078;BME280;60508;42.622;25.416;2024-02-21T08:43:21;97507.28;;;10.26;67.48
45078;BME280;60508;42.622;25.416;2024-02-21T08:45:47;97512.69;;;10.63;63.52
45078;BME280;60508;42.622;25.416;2024-02-21T08:48:13;97509.38;;;10.60;63.51
45078;BME280;60508;42.622;25.416;2024-02-21T08:50:40;97510.91;;;11.17;61.84
45078;BME280;60508;42.622;25.416;2024-02-21T08:53:07;97511.75;;;11.72;59.96
45078;BME280;60508;42.622;25.416;2024-02-21T08:55:33;97509.19;;;12.76;56.04
45078;BME280;60508;42.622;25.416;2024-02-21T08:58:00;97519.81;;;12.42;56.42
45078;BME280;60508;42.622;25.416;2024-02-21T09:00:27;97513.78;;;13.33;54.04
45078;BME280;60508;42.622;25.416;2024-02-21T09:02:54;97523.81;;;13.67;52.88
45078;BME280;60508;42.622;25.416;2024-02-21T09:05:46;97518.56;;;14.72;50.32
45078;BME280;60508;42.622;25.416;2024-02-21T09:08:15;97516.97;;;15.80;47.66
45078;BME280;60508;42.622;25.416;2024-02-21T09:10:42;97513.22;;;16.82;44.67
45078;BME280;60508;42.622;25.416;2024-02-21T09:13:08;97509.84;;;17.18;43.17
45078;BME280;60508;42.622;25.416;2024-02-21T09:15:36;97512.09;;;17.67;42.29
45078;BME280;60508;42.622;25.416;2024-02-21T09:18:25;97508.34;;;15.83;43.65
45078;BME280;60508;42.622;25.416;2024-02-21T09:20:56;97498.38;;;16.37;44.97
45078;BME280;60508;42.622;25.416;2024-02-21T09:23:42;97495.47;;;17.27;43.17
45078;BME280;60508;42.622;25.416;2024-02-21T09:26:08;97504.72;;;17.47;41.16
45078;BME280;60508;42.622;25.416;2024-02-21T09:28:39;97490.06;;;17.53;41.25
45078;BME280;60508;42.622;25.416;2024-02-21T09:31:26;97488.16;;;16.59;41.91
45078;BME280;60508;42.622;25.416;2024-02-21T09:33:52;97496.13;;;16.76;42.52
45078;BME280;60508;42.622;25.416;2024-02-21T09:36:18;97493.38;;;16.71;40.61
45078;BME280;60508;42.622;25.416;2024-02-21T09:38:45;97483.69;;;15.52;44.36
45078;BME280;60508;42.622;25.416;2024-02-21T09:41:16;97487.19;;;15.53;44.76
45078;BME280;60508;42.622;25.416;2024-02-21T09:43:46;97486.16;;;16.92;42.24
45078;BME280;60508;42.622;25.416;2024-02-21T09:46:23;97492.75;;;17.22;40.58
45078;BME280;60508;42.622;25.416;2024-02-21T09:49:18;97489.00;;;18.05;37.82
45078;BME280;60508;42.622;25.416;2024-02-21T09:52:07;97476.34;;;16.81;39.71
45078;BME280;60508;42.622;25.416;2024-02-21T09:54:35;97479.00;;;16.18;41.39
45078;BME280;60508;42.622;25.416;2024-02-21T09:57:22;97477.13;;;16.82;40.67
45078;BME280;60508;42.622;25.416;2024-02-21T09:59:49;97470.91;;;16.81;40.29
45078;BME280;60508;42.622;25.416;2024-02-21T10:02:16;97472.41;;;16.51;40.36
45078;BME280;60508;42.622;25.416;2024-02-21T10:05:04;97464.91;;;16.84;39.54
45078;BME280;60508;42.622;25.416;2024-02-21T10:07:31;97461.69;;;15.76;40.94
45078;BME280;60508;42.622;25.416;2024-02-21T10:10:18;97464.50;;;16.45;39.20
45078;BME280;60508;42.622;25.416;2024-02-21T10:12:51;97459.44;;;16.05;38.93
45078;BME280;60508;42.622;25.416;2024-02-21T10:15:21;97447.88;;;15.78;39.19
45078;BME280;60508;42.622;25.416;2024-02-21T10:17:49;97447.25;;;15.06;39.86
45078;BME280;60508;42.622;25.416;2024-02-21T10:20:35;97440.09;;;14.06;40.87
45078;BME280;60508;42.622;25.416;2024-02-21T10:23:07;97438.59;;;13.08;41.70
45078;BME280;60508;42.622;25.416;2024-02-21T10:25:35;97435.97;;;12.68;43.00
45078;BME280;60508;42.622;25.416;2024-02-21T10:28:04;97428.94;;;12.67;42.79
45078;BME280;60508;42.622;25.416;2024-02-21T10:30:51;97430.41;;;12.05;43.50
45078;BME280;60508;42.622;25.416;2024-02-21T10:33:18;97421.72;;;11.67;42.94
45078;BME280;60508;42.622;25.416;2024-02-21T10:35:48;97418.47;;;11.54;43.18
45078;BME280;60508;42.622;25.416;2024-02-21T10:38:15;97423.72;;;11.60;42.79
45078;BME280;60508;42.622;25.416;2024-02-21T10:41:04;97414.94;;;11.29;42.48
45078;BME280;60508;42.622;25.416;2024-02-21T10:43:37;97418.13;;;11.50;42.75
45078;BME280;60508;42.622;25.416;2024-02-21T10:46:25;97417.16;;;11.56;41.70
45078;BME280;60508;42.622;25.416;2024-02-21T10:49:02;97408.88;;;11.69;40.91
45078;BME280;60508;42.622;25.416;2024-02-21T10:52:09;97407.91;;;11.87;40.86
45078;BME280;60508;42.622;25.416;2024-02-21T10:54:44;97407.19;;;11.80;41.71
45078;BME280;60508;42.622;25.416;2024-02-21T10:57:16;97395.16;;;11.36;43.47
45078;BME280;60508;42.622;25.416;2024-02-21T10:59:44;97400.28;;;11.13;43.11
45078;BME280;60508;42.622;25.416;2024-02-21T11:02:31;97391.75;;;11.64;43.01
45078;BME280;60508;42.622;25.416;2024-02-21T11:04:58;97394.81;;;11.56;42.85
45078;BME280;60508;42.622;25.416;2024-02-21T11:07:45;97395.75;;;11.26;42.83
45078;BME280;60508;42.622;25.416;2024-02-21T11:10:24;97387.31;;;11.46;42.32
45078;BME280;60508;42.622;25.416;2024-02-21T11:13:06;97393.34;;;12.53;40.58
45078;BME280;60508;42.622;25.416;2024-02-21T11:15:34;97391.81;;;13.20;39.68
45078;BME280;60508;42.622;25.416;2024-02-21T11:18:00;97384.63;;;13.59;39.32
45078;BME280;60508;42.622;25.416;2024-02-21T11:20:34;97389.38;;;13.18;39.30
45078;BME280;60508;42.622;25.416;2024-02-21T11:23:26;97391.72;;;12.52;42.90
45078;BME280;60508;42.622;25.416;2024-02-21T11:25:52;97386.38;;;11.87;44.41
45078;BME280;60508;42.622;25.416;2024-02-21T11:28:38;97388.38;;;11.33;45.66
45078;BME280;60508;42.622;25.416;2024-02-21T11:31:10;97383.00;;;11.09;46.59
45078;BME280;60508;42.622;25.416;2024-02-21T11:33:42;97384.97;;;11.14;44.98
45078;BME280;60508;42.622;25.416;2024-02-21T11:36:09;97387.28;;;10.99;44.42
45078;BME280;60508;42.622;25.416;2024-02-21T11:39:03;97384.38;;;11.12;44.28
45078;BME280;60508;42.622;25.416;2024-02-21T11:41:31;97385.22;;;11.36;42.85
45078;BME280;60508;42.622;25.416;2024-02-21T11:44:17;97375.28;;;11.60;43.15
45078;BME280;60508;42.622;25.416;2024-02-21T11:46:43;97381.34;;;11.67;44.56
45078;BME280;60508;42.622;25.416;2024-02-21T11:49:31;97368.22;;;11.95;46.10
45078;BME280;60508;42.622;25.416;2024-02-21T11:51:58;97367.38;;;12.06;45.99
45078;BME280;60508;42.622;25.416;2024-02-21T11:54:45;97364.47;;;12.82;44.54
45078;BME280;60508;42.622;25.416;2024-02-21T11:57:12;97363.44;;;13.51;42.05
45078;BME280;60508;42.622;25.416;2024-02-21T11:59:58;97362.22;;;14.47;40.48
45078;BME280;60508;42.622;25.416;2024-02-21T12:02:26;97357.19;;;14.34;40.33
45078;BME280;60508;42.622;25.416;2024-02-21T12:04:53;97363.00;;;14.20;40.10
45078;BME280;60508;42.622;25.416;2024-02-21T12:07:25;97366.31;;;13.83;39.63
45078;BME280;60508;42.622;25.416;2024-02-21T12:10:17;97358.22;;;13.61;38.63
45078;BME280;60508;42.622;25.416;2024-02-21T12:12:43;97355.91;;;13.53;39.43
45078;BME280;60508;42.622;25.416;2024-02-21T12:15:09;97355.84;;;13.48;39.58
45078;BME280;60508;42.622;25.416;2024-02-21T12:17:56;97356.50;;;12.87;41.71
45078;BME280;60508;42.622;25.416;2024-02-21T12:20:22;97359.41;;;12.69;41.66
45078;BME280;60508;42.622;25.416;2024-02-21T12:23:10;97362.72;;;12.59;41.68
45078;BME280;60508;42.622;25.416;2024-02-21T12:25:36;97354.56;;;12.25;42.09
45078;BME280;60508;42.622;25.416;2024-02-21T12:28:25;97358.56;;;12.22;42.54
45078;BME280;60508;42.622;25.416;2024-02-21T12:30:52;97356.34;;;12.08;42.71
45078;BME280;60508;42.622;25.416;2024-02-21T12:33:18;97337.19;;;12.04;42.74
45078;BME280;60508;42.622;25.416;2024-02-21T12:35:45;97347.28;;;11.97;42.97
45078;BME280;60508;42.622;25.416;2024-02-21T12:38:11;97355.81;;;11.94;43.60
45078;BME280;60508;42.622;25.416;2024-02-21T12:40:59;97341.41;;;12.00;42.25
45078;BME280;60508;42.622;25.416;2024-02-21T12:43:28;97352.88;;;11.83;42.31
45078;BME280;60508;42.622;25.416;2024-02-21T12:45:54;97346.81;;;12.00;42.10
45078;BME280;60508;42.622;25.416;2024-02-21T12:48:40;97348.44;;;11.89;41.97
45078;BME280;60508;42.622;25.416;2024-02-21T12:51:07;97345.50;;;11.91;42.34
45078;BME280;60508;42.622;25.416;2024-02-21T12:53:54;97342.94;;;11.96;43.27
45078;BME280;60508;42.622;25.416;2024-02-21T12:56:20;97345.41;;;11.97;42.76
45078;BME280;60508;42.622;25.416;2024-02-21T12:58:47;97343.50;;;11.86;43.03
45078;BME280;60508;42.622;25.416;2024-02-21T13:01:13;97338.34;;;11.96;41.73
45078;BME280;60508;42.622;25.416;2024-02-21T13:03:40;97337.56;;;11.84;41.70
45078;BME280;60508;42.622;25.416;2024-02-21T13:06:26;97330.78;;;11.69;40.58
45078;BME280;60508;42.622;25.416;2024-02-21T13:08:52;97329.84;;;11.76;41.12
45078;BME280;60508;42.622;25.416;2024-02-21T13:11:39;97335.09;;;11.94;40.73
45078;BME280;60508;42.622;25.416;2024-02-21T13:14:06;97330.41;;;12.01;40.50
45078;BME280;60508;42.622;25.416;2024-02-21T13:16:53;97331.44;;;12.00;40.72
45078;BME280;60508;42.622;25.416;2024-02-21T13:19:19;97323.25;;;11.83;40.16
45078;BME280;60508;42.622;25.416;2024-02-21T13:21:47;97321.28;;;11.79;40.13
45078;BME280;60508;42.622;25.416;2024-02-21T13:24:13;97324.19;;;12.01;40.60
45078;BME280;60508;42.622;25.416;2024-02-21T13:26:40;97320.88;;;12.11;38.76
45078;BME280;60508;42.622;25.416;2024-02-21T13:29:26;97318.63;;;12.19;39.33